sensor_id;sensor_type;location;lat;lon;timestamp;P1;durP1;ratioP1;P2;durP2;ratioP2
65202;SDS011;51788;45.124;38.966;2023-09-07T00:02:00;7.20;;;5.22;;
65202;SDS011;51788;45.124;38.966;2023-09-07T00:04:26;5.50;;;4.72;;
65202;SDS011;51788;45.124;38.966;2023-09-07T00:06:52;5.40;;;3.75;;
65202;SDS011;51788;45.124;38.966;2023-09-07T00:09:18;4.90;;;4.50;;
65202;SDS011;51788;45.124;38.966;2023-09-07T00:11:47;5.43;;;4.90;;
65202;SDS011;51788;45.124;38.966;2023-09-07T00:14:14;6.03;;;4.57;;
65202;SDS011;51788;45.124;38.966;2023-09-07T00:16:40;6.00;;;5.32;;
65202;SDS011;51788;45.124;38.966;2023-09-07T00:19:06;7.40;;;4.93;;
65202;SDS011;51788;45.124;38.966;2023-09-07T00:21:32;11.20;;;5.50;;
65202;SDS011;51788;45.124;38.966;2023-09-07T00:23:58;4.78;;;4.38;;
65202;SDS011;51788;45.124;38.966;2023-09-07T00:26:24;5.93;;;5.22;;
65202;SDS011;51788;45.124;38.966;2023-09-07T00:28:50;7.55;;;4.82;;
65202;SDS011;51788;45.124;38.966;2023-09-07T00:31:16;6.97;;;5.40;;
65202;SDS011;51788;45.124;38.966;2023-09-07T00:33:42;6.05;;;5.07;;
65202;SDS011;51788;45.124;38.966;2023-09-07T00:36:08;9.70;;;5.00;;
65202;SDS011;51788;45.124;38.966;2023-09-07T00:38:34;5.88;;;5.30;;
65202;SDS011;51788;45.124;38.966;2023-09-07T00:41:00;8.15;;;5.15;;
65202;SDS011;51788;45.124;38.966;2023-09-07T00:43:26;5.72;;;4.80;;
65202;SDS011;51788;45.124;38.966;2023-09-07T00:45:52;8.48;;;5.53;;
65202;SDS011;51788;45.124;38.966;2023-09-07T00:48:19;6.45;;;5.18;;
65202;SDS011;51788;45.124;38.966;2023-09-07T00:50:46;7.50;;;5.00;;
65202;SDS011;51788;45.124;38.966;2023-09-07T00:53:12;6.55;;;5.50;;
65202;SDS011;51788;45.124;38.966;2023-09-07T00:55:39;6.50;;;5.22;;
65202;SDS011;51788;45.124;38.966;2023-09-07T00:58:05;10.38;;;5.35;;
65202;SDS011;51788;45.124;38.966;2023-09-07T01:00:32;5.55;;;5.03;;
65202;SDS011;51788;45.124;38.966;2023-09-07T01:03:00;11.18;;;6.88;;
65202;SDS011;51788;45.124;38.966;2023-09-07T01:05:34;5.80;;;5.03;;
65202;SDS011;51788;45.124;38.966;2023-09-07T01:08:26;6.50;;;6.00;;
65202;SDS011;51788;45.124;38.966;2023-09-07T01:10:58;6.72;;;5.90;;
65202;SDS011;51788;45.124;38.966;2023-09-07T01:13:24;7.43;;;5.45;;
65202;SDS011;51788;45.124;38.966;2023-09-07T01:15:50;7.70;;;5.90;;
65202;SDS011;51788;45.124;38.966;2023-09-07T01:18:17;9.73;;;6.10;;
65202;SDS011;51788;45.124;38.966;2023-09-07T01:20:45;6.28;;;5.75;;
65202;SDS011;51788;45.124;38.966;2023-09-07T01:23:13;6.95;;;6.05;;
65202;SDS011;51788;45.124;38.966;2023-09-07T01:25:42;7.50;;;5.38;;
65202;SDS011;51788;45.124;38.966;2023-09-07T01:28:10;15.93;;;4.28;;
65202;SDS011;51788;45.124;38.966;2023-09-07T01:30:37;14.60;;;6.18;;
65202;SDS011;51788;45.124;38.966;2023-09-07T01:33:04;9.55;;;6.25;;
65202;SDS011;51788;45.124;38.966;2023-09-07T01:35:31;12.20;;;6.25;;
65202;SDS011;51788;45.124;38.966;2023-09-07T01:37:59;10.93;;;6.60;;
65202;SDS011;51788;45.124;38.966;2023-09-07T01:40:25;15.85;;;6.45;;
65202;SDS011;51788;45.124;38.966;2023-09-07T01:42:51;7.53;;;5.63;;
65202;SDS011;51788;45.124;38.966;2023-09-07T01:45:17;14.60;;;6.00;;
65202;SDS011;51788;45.124;38.966;2023-09-07T01:47:43;13.40;;;5.65;;
65202;SDS011;51788;45.124;38.966;2023-09-07T01:50:09;6.28;;;5.68;;
65202;SDS011;51788;45.124;38.966;2023-09-07T01:52:36;6.65;;;5.95;;
65202;SDS011;51788;45.124;38.966;2023-09-07T01:55:02;12.70;;;6.07;;
65202;SDS011;51788;45.124;38.966;2023-09-07T01:57:28;10.57;;;6.45;;
65202;SDS011;51788;45.124;38.966;2023-09-07T01:59:55;9.30;;;5.40;;
65202;SDS011;51788;45.124;38.966;2023-09-07T02:02:21;11.60;;;5.72;;
65202;SDS011;51788;45.124;38.966;2023-09-07T02:04:47;7.65;;;5.70;;
65202;SDS011;51788;45.124;38.966;2023-09-07T02:07:13;10.60;;;5.68;;
65202;SDS011;51788;45.124;38.966;2023-09-07T02:09:41;11.52;;;5.80;;
65202;SDS011;51788;45.124;38.966;2023-09-07T02:12:07;9.40;;;6.10;;
65202;SDS011;51788;45.124;38.966;2023-09-07T02:14:33;6.70;;;5.72;;
65202;SDS011;51788;45.124;38.966;2023-09-07T02:17:00;6.70;;;6.00;;
65202;SDS011;51788;45.124;38.966;2023-09-07T02:19:25;9.23;;;6.13;;
65202;SDS011;51788;45.124;38.966;2023-09-07T02:21:52;7.10;;;6.15;;
65202;SDS011;51788;45.124;38.966;2023-09-07T02:24:18;6.93;;;6.22;;
65202;SDS011;51788;45.124;38.966;2023-09-07T02:26:44;7.10;;;5.65;;
65202;SDS011;51788;45.124;38.966;2023-09-07T02:29:14;19.23;;;6.43;;
65202;SDS011;51788;45.124;38.966;2023-09-07T02:31:40;8.00;;;5.47;;
65202;SDS011;51788;45.124;38.966;2023-09-07T02:34:06;10.27;;;5.75;;
65202;SDS011;51788;45.124;38.966;2023-09-07T02:36:33;16.65;;;6.65;;
65202;SDS011;51788;45.124;38.966;2023-09-07T02:39:02;8.20;;;6.55;;
65202;SDS011;51788;45.124;38.966;2023-09-07T02:41:30;11.98;;;6.32;;
65202;SDS011;51788;45.124;38.966;2023-09-07T02:43:56;6.10;;;5.60;;
65202;SDS011;51788;45.124;38.966;2023-09-07T02:46:23;14.73;;;6.03;;
65202;SDS011;51788;45.124;38.966;2023-09-07T02:48:49;10.82;;;5.70;;
65202;SDS011;51788;45.124;38.966;2023-09-07T02:51:16;18.55;;;5.82;;
65202;SDS011;51788;45.124;38.966;2023-09-07T02:53:43;13.32;;;6.35;;
65202;SDS011;51788;45.124;38.966;2023-09-07T02:56:09;15.20;;;6.60;;
65202;SDS011;51788;45.124;38.966;2023-09-07T02:58:38;10.98;;;6.65;;
65202;SDS011;51788;45.124;38.966;2023-09-07T03:01:05;13.00;;;8.05;;
65202;SDS011;51788;45.124;38.966;2023-09-07T03:03:35;12.82;;;6.47;;
65202;SDS011;51788;45.124;38.966;2023-09-07T03:06:09;22.45;;;6.43;;
65202;SDS011;51788;45.124;38.966;2023-09-07T03:08:39;14.63;;;6.38;;
65202;SDS011;51788;45.124;38.966;2023-09-07T03:11:06;13.90;;;6.50;;
65202;SDS011;51788;45.124;38.966;2023-09-07T03:13:33;16.10;;;6.45;;
65202;SDS011;51788;45.124;38.966;2023-09-07T03:16:00;15.30;;;6.55;;
65202;SDS011;51788;45.124;38.966;2023-09-07T03:18:26;12.02;;;6.70;;
65202;SDS011;51788;45.124;38.966;2023-09-07T03:20:54;15.75;;;7.50;;
65202;SDS011;51788;45.124;38.966;2023-09-07T03:23:22;12.35;;;6.70;;
65202;SDS011;51788;45.124;38.966;2023-09-07T03:25:49;15.32;;;6.78;;
65202;SDS011;51788;45.124;38.966;2023-09-07T03:28:15;10.05;;;6.05;;
65202;SDS011;51788;45.124;38.966;2023-09-07T03:30:42;14.00;;;6.75;;
65202;SDS011;51788;45.124;38.966;2023-09-07T03:33:08;11.27;;;6.43;;
65202;SDS011;51788;45.124;38.966;2023-09-07T03:35:34;14.23;;;7.18;;
65202;SDS011;51788;45.124;38.966;2023-09-07T03:38:01;14.35;;;8.43;;
65202;SDS011;51788;45.124;38.966;2023-09-07T03:40:27;7.95;;;6.72;;
65202;SDS011;51788;45.124;38.966;2023-09-07T03:42:53;10.32;;;6.72;;
65202;SDS011;51788;45.124;38.966;2023-09-07T03:45:19;17.35;;;7.38;;
65202;SDS011;51788;45.124;38.966;2023-09-07T03:47:46;15.48;;;6.80;;
65202;SDS011;51788;45.124;38.966;2023-09-07T03:50:14;16.13;;;7.50;;
65202;SDS011;51788;45.124;38.966;2023-09-07T03:52:40;16.33;;;6.85;;
65202;SDS011;51788;45.124;38.966;2023-09-07T03:55:07;11.48;;;7.07;;
65202;SDS011;51788;45.124;38.966;2023-09-07T03:57:34;14.32;;;8.60;;
65202;SDS011;51788;45.124;38.966;2023-09-07T04:00:01;19.55;;;7.75;;
65202;SDS011;51788;45.124;38.966;2023-09-07T04:02:38;14.20;;;8.00;;
65202;SDS011;51788;45.124;38.966;2023-09-07T04:05:06;9.40;;;8.48;;
65202;SDS011;51788;45.124;38.966;2023-09-07T04:07:32;13.48;;;7.93;;
65202;SDS011;51788;45.124;38.966;2023-09-07T04:09:59;19.92;;;9.27;;
65202;SDS011;51788;45.124;38.966;2023-09-07T04:12:25;12.85;;;8.27;;
65202;SDS011;51788;45.124;38.966;2023-09-07T04:14:53;9.50;;;8.02;;
65202;SDS011;51788;45.124;38.966;2023-09-07T04:17:19;21.35;;;8.75;;
65202;SDS011;51788;45.124;38.966;2023-09-07T04:19:45;13.77;;;8.93;;
65202;SDS011;51788;45.124;38.966;2023-09-07T04:22:12;16.90;;;8.65;;
65202;SDS011;51788;45.124;38.966;2023-09-07T04:24:39;12.02;;;8.95;;
65202;SDS011;51788;45.124;38.966;2023-09-07T04:27:07;12.45;;;7.85;;
65202;SDS011;51788;45.124;38.966;2023-09-07T04:29:33;15.63;;;8.60;;
65202;SDS011;51788;45.124;38.966;2023-09-07T04:31:59;14.43;;;9.55;;
65202;SDS011;51788;45.124;38.966;2023-09-07T04:34:26;20.00;;;10.30;;
65202;SDS011;51788;45.124;38.966;2023-09-07T04:36:53;24.55;;;9.20;;
65202;SDS011;51788;45.124;38.966;2023-09-07T04:39:20;18.00;;;9.35;;
65202;SDS011;51788;45.124;38.966;2023-09-07T04:41:46;9.27;;;8.18;;
65202;SDS011;51788;45.124;38.966;2023-09-07T04:44:13;20.20;;;9.07;;
65202;SDS011;51788;45.124;38.966;2023-09-07T04:46:39;13.45;;;7.35;;
65202;SDS011;51788;45.124;38.966;2023-09-07T04:49:06;22.67;;;9.10;;
65202;SDS011;51788;45.124;38.966;2023-09-07T04:51:33;22.92;;;7.70;;
65202;SDS011;51788;45.124;38.966;2023-09-07T04:53:59;15.15;;;6.90;;
65202;SDS011;51788;45.124;38.966;2023-09-07T04:56:30;18.30;;;8.20;;
65202;SDS011;51788;45.124;38.966;2023-09-07T04:58:56;12.07;;;7.32;;
65202;SDS011;51788;45.124;38.966;2023-09-07T05:01:23;11.63;;;8.07;;
65202;SDS011;51788;45.124;38.966;2023-09-07T05:03:51;13.70;;;8.50;;
65202;SDS011;51788;45.124;38.966;2023-09-07T05:06:17;16.58;;;8.43;;
65202;SDS011;51788;45.124;38.966;2023-09-07T05:08:43;40.70;;;7.47;;
65202;SDS011;51788;45.124;38.966;2023-09-07T05:11:10;14.05;;;8.32;;
65202;SDS011;51788;45.124;38.966;2023-09-07T05:13:37;8.25;;;6.68;;
65202;SDS011;51788;45.124;38.966;2023-09-07T05:16:03;28.10;;;8.02;;
65202;SDS011;51788;45.124;38.966;2023-09-07T05:18:33;24.25;;;8.05;;
65202;SDS011;51788;45.124;38.966;2023-09-07T05:20:59;20.98;;;8.00;;
65202;SDS011;51788;45.124;38.966;2023-09-07T05:23:25;14.88;;;6.72;;
65202;SDS011;51788;45.124;38.966;2023-09-07T05:25:53;16.35;;;5.63;;
65202;SDS011;51788;45.124;38.966;2023-09-07T05:28:22;16.08;;;7.00;;
65202;SDS011;51788;45.124;38.966;2023-09-07T05:30:51;26.17;;;7.05;;
65202;SDS011;51788;45.124;38.966;2023-09-07T05:33:20;7.40;;;6.15;;
65202;SDS011;51788;45.124;38.966;2023-09-07T05:35:47;8.77;;;5.32;;
65202;SDS011;51788;45.124;38.966;2023-09-07T05:38:13;11.18;;;6.20;;
65202;SDS011;51788;45.124;38.966;2023-09-07T05:40:41;12.25;;;5.00;;
65202;SDS011;51788;45.124;38.966;2023-09-07T05:43:09;19.08;;;5.90;;
65202;SDS011;51788;45.124;38.966;2023-09-07T05:45:38;9.25;;;5.57;;
65202;SDS011;51788;45.124;38.966;2023-09-07T05:48:07;10.50;;;6.03;;
65202;SDS011;51788;45.124;38.966;2023-09-07T05:50:35;10.10;;;4.90;;
65202;SDS011;51788;45.124;38.966;2023-09-07T05:53:02;8.63;;;5.70;;
65202;SDS011;51788;45.124;38.966;2023-09-07T05:55:29;6.00;;;5.05;;
65202;SDS011;51788;45.124;38.966;2023-09-07T05:57:55;14.57;;;5.97;;
65202;SDS011;51788;45.124;38.966;2023-09-07T06:00:22;11.00;;;6.03;;
65202;SDS011;51788;45.124;38.966;2023-09-07T06:02:49;10.63;;;4.65;;
65202;SDS011;51788;45.124;38.966;2023-09-07T06:05:16;17.20;;;5.18;;
65202;SDS011;51788;45.124;38.966;2023-09-07T06:07:44;11.18;;;5.55;;
65202;SDS011;51788;45.124;38.966;2023-09-07T06:10:12;5.65;;;4.78;;
65202;SDS011;51788;45.124;38.966;2023-09-07T06:12:38;9.93;;;4.70;;
65202;SDS011;51788;45.124;38.966;2023-09-07T06:15:04;13.90;;;4.68;;
65202;SDS011;51788;45.124;38.966;2023-09-07T06:17:32;12.20;;;5.43;;
65202;SDS011;51788;45.124;38.966;2023-09-07T06:19:58;12.00;;;4.53;;
65202;SDS011;51788;45.124;38.966;2023-09-07T06:22:25;9.43;;;4.55;;
65202;SDS011;51788;45.124;38.966;2023-09-07T06:24:52;18.58;;;4.72;;
65202;SDS011;51788;45.124;38.966;2023-09-07T06:27:19;17.77;;;5.53;;
65202;SDS011;51788;45.124;38.966;2023-09-07T06:29:45;8.63;;;4.07;;
65202;SDS011;51788;45.124;38.966;2023-09-07T06:32:13;14.13;;;4.68;;
65202;SDS011;51788;45.124;38.966;2023-09-07T06:34:40;13.65;;;5.85;;
65202;SDS011;51788;45.124;38.966;2023-09-07T06:37:06;13.65;;;5.00;;
65202;SDS011;51788;45.124;38.966;2023-09-07T06:39:33;5.25;;;4.55;;
65202;SDS011;51788;45.124;38.966;2023-09-07T06:41:59;18.33;;;6.45;;
65202;SDS011;51788;45.124;38.966;2023-09-07T06:44:33;6.20;;;3.53;;
65202;SDS011;51788;45.124;38.966;2023-09-07T06:47:00;7.18;;;4.30;;
65202;SDS011;51788;45.124;38.966;2023-09-07T06:49:28;8.30;;;4.40;;
65202;SDS011;51788;45.124;38.966;2023-09-07T06:51:56;13.75;;;5.57;;
65202;SDS011;51788;45.124;38.966;2023-09-07T06:54:23;5.07;;;3.42;;
65202;SDS011;51788;45.124;38.966;2023-09-07T06:56:49;7.30;;;5.03;;
65202;SDS011;51788;45.124;38.966;2023-09-07T06:59:15;6.90;;;3.88;;
65202;SDS011;51788;45.124;38.966;2023-09-07T07:01:41;6.82;;;3.20;;
65202;SDS011;51788;45.124;38.966;2023-09-07T07:04:07;9.70;;;3.90;;
65202;SDS011;51788;45.124;38.966;2023-09-07T07:06:35;8.88;;;3.80;;
65202;SDS011;51788;45.124;38.966;2023-09-07T07:09:01;13.68;;;4.40;;
65202;SDS011;51788;45.124;38.966;2023-09-07T07:11:28;8.15;;;3.55;;
65202;SDS011;51788;45.124;38.966;2023-09-07T07:13:54;4.28;;;3.17;;
65202;SDS011;51788;45.124;38.966;2023-09-07T07:16:20;7.40;;;3.20;;
65202;SDS011;51788;45.124;38.966;2023-09-07T07:18:48;4.70;;;3.30;;
65202;SDS011;51788;45.124;38.966;2023-09-07T07:21:15;6.63;;;2.42;;
65202;SDS011;51788;45.124;38.966;2023-09-07T07:23:41;4.82;;;2.60;;
65202;SDS011;51788;45.124;38.966;2023-09-07T07:26:08;5.70;;;3.10;;
65202;SDS011;51788;45.124;38.966;2023-09-07T07:28:34;6.35;;;2.17;;
65202;SDS011;51788;45.124;38.966;2023-09-07T07:31:08;4.70;;;2.20;;
65202;SDS011;51788;45.124;38.966;2023-09-07T07:33:40;11.80;;;2.70;;
65202;SDS011;51788;45.124;38.966;2023-09-07T07:36:06;2.00;;;1.90;;
65202;SDS011;51788;45.124;38.966;2023-09-07T07:38:33;5.60;;;1.88;;
65202;SDS011;51788;45.124;38.966;2023-09-07T07:41:00;6.97;;;2.60;;
65202;SDS011;51788;45.124;38.966;2023-09-07T07:43:26;8.80;;;3.00;;
65202;SDS011;51788;45.124;38.966;2023-09-07T07:45:53;2.40;;;2.20;;
65202;SDS011;51788;45.124;38.966;2023-09-07T07:48:21;5.85;;;2.13;;
65202;SDS011;51788;45.124;38.966;2023-09-07T07:50:47;7.90;;;3.30;;
65202;SDS011;51788;45.124;38.966;2023-09-07T07:53:15;2.75;;;1.90;;
65202;SDS011;51788;45.124;38.966;2023-09-07T07:55:42;5.63;;;2.47;;
65202;SDS011;51788;45.124;38.966;2023-09-07T07:58:12;7.78;;;2.45;;
65202;SDS011;51788;45.124;38.966;2023-09-07T08:00:40;10.50;;;2.90;;
65202;SDS011;51788;45.124;38.966;2023-09-07T08:03:07;6.70;;;2.70;;
65202;SDS011;51788;45.124;38.966;2023-09-07T08:05:36;5.95;;;2.40;;
65202;SDS011;51788;45.124;38.966;2023-09-07T08:08:06;6.07;;;2.53;;
65202;SDS011;51788;45.124;38.966;2023-09-07T08:10:35;7.47;;;2.10;;
65202;SDS011;51788;45.124;38.966;2023-09-07T08:13:04;5.75;;;2.42;;
65202;SDS011;51788;45.124;38.966;2023-09-07T08:15:31;6.03;;;2.22;;
65202;SDS011;51788;45.124;38.966;2023-09-07T08:17:58;3.60;;;2.03;;
65202;SDS011;51788;45.124;38.966;2023-09-07T08:20:25;2.95;;;2.30;;
65202;SDS011;51788;45.124;38.966;2023-09-07T08:22:53;3.50;;;2.25;;
65202;SDS011;51788;45.124;38.966;2023-09-07T08:25:19;5.85;;;2.38;;
65202;SDS011;51788;45.124;38.966;2023-09-07T08:27:46;9.18;;;2.10;;
65202;SDS011;51788;45.124;38.966;2023-09-07T08:30:14;4.97;;;2.10;;
65202;SDS011;51788;45.124;38.966;2023-09-07T08:32:42;11.65;;;1.75;;
65202;SDS011;51788;45.124;38.966;2023-09-07T08:35:10;4.20;;;2.47;;
65202;SDS011;51788;45.124;38.966;2023-09-07T08:37:39;2.17;;;1.98;;
65202;SDS011;51788;45.124;38.966;2023-09-07T08:40:05;9.55;;;2.47;;
65202;SDS011;51788;45.124;38.966;2023-09-07T08:42:35;7.10;;;2.30;;
65202;SDS011;51788;45.124;38.966;2023-09-07T08:45:04;6.35;;;2.08;;
65202;SDS011;51788;45.124;38.966;2023-09-07T08:47:33;2.17;;;1.98;;
65202;SDS011;51788;45.124;38.966;2023-09-07T08:50:01;8.00;;;2.10;;
65202;SDS011;51788;45.124;38.966;2023-09-07T08:52:31;4.30;;;2.25;;
65202;SDS011;51788;45.124;38.966;2023-09-07T08:54:59;3.47;;;2.30;;
65202;SDS011;51788;45.124;38.966;2023-09-07T08:57:26;6.07;;;2.42;;
65202;SDS011;51788;45.124;38.966;2023-09-07T08:59:52;7.03;;;3.50;;
65202;SDS011;51788;45.124;38.966;2023-09-07T09:02:19;3.80;;;2.45;;
65202;SDS011;51788;45.124;38.966;2023-09-07T09:04:45;2.90;;;2.70;;
65202;SDS011;51788;45.124;38.966;2023-09-07T09:07:11;6.00;;;1.88;;
65202;SDS011;51788;45.124;38.966;2023-09-07T09:09:38;2.10;;;2.00;;
65202;SDS011;51788;45.124;38.966;2023-09-07T09:12:08;4.43;;;3.50;;
65202;SDS011;51788;45.124;38.966;2023-09-07T09:14:36;2.53;;;2.33;;
65202;SDS011;51788;45.124;38.966;2023-09-07T09:17:13;5.10;;;2.50;;
65202;SDS011;51788;45.124;38.966;2023-09-07T09:19:40;5.35;;;2.15;;
65202;SDS011;51788;45.124;38.966;2023-09-07T09:22:07;12.55;;;2.58;;
65202;SDS011;51788;45.124;38.966;2023-09-07T09:24:33;22.42;;;4.53;;
65202;SDS011;51788;45.124;38.966;2023-09-07T09:27:00;9.95;;;2.60;;
65202;SDS011;51788;45.124;38.966;2023-09-07T09:29:26;4.47;;;2.55;;
65202;SDS011;51788;45.124;38.966;2023-09-07T09:31:53;3.75;;;2.70;;
65202;SDS011;51788;45.124;38.966;2023-09-07T09:34:20;10.25;;;2.90;;
65202;SDS011;51788;45.124;38.966;2023-09-07T09:36:46;4.10;;;2.30;;
65202;SDS011;51788;45.124;38.966;2023-09-07T09:39:24;7.15;;;2.30;;
65202;SDS011;51788;45.124;38.966;2023-09-07T09:41:51;7.43;;;3.30;;
65202;SDS011;51788;45.124;38.966;2023-09-07T09:44:18;7.35;;;2.20;;
65202;SDS011;51788;45.124;38.966;2023-09-07T09:46:47;3.35;;;1.85;;
65202;SDS011;51788;45.124;38.966;2023-09-07T09:49:15;2.63;;;2.20;;
65202;SDS011;51788;45.124;38.966;2023-09-07T09:51:43;3.90;;;1.92;;
65202;SDS011;51788;45.124;38.966;2023-09-07T09:54:11;4.80;;;2.20;;
65202;SDS011;51788;45.124;38.966;2023-09-07T09:56:39;2.78;;;2.08;;
65202;SDS011;51788;45.124;38.966;2023-09-07T09:59:06;8.30;;;2.58;;
65202;SDS011;51788;45.124;38.966;2023-09-07T10:01:37;5.60;;;2.22;;
65202;SDS011;51788;45.124;38.966;2023-09-07T10:04:07;10.68;;;2.13;;
65202;SDS011;51788;45.124;38.966;2023-09-07T10:06:35;2.85;;;2.28;;
65202;SDS011;51788;45.124;38.966;2023-09-07T10:09:05;2.38;;;2.13;;
65202;SDS011;51788;45.124;38.966;2023-09-07T10:11:37;3.15;;;2.13;;
65202;SDS011;51788;45.124;38.966;2023-09-07T10:14:04;4.15;;;1.98;;
65202;SDS011;51788;45.124;38.966;2023-09-07T10:16:43;6.13;;;3.15;;
65202;SDS011;51788;45.124;38.966;2023-09-07T10:19:14;3.00;;;2.25;;
65202;SDS011;51788;45.124;38.966;2023-09-07T10:21:41;2.08;;;1.98;;
65202;SDS011;51788;45.124;38.966;2023-09-07T10:24:08;7.60;;;2.22;;
65202;SDS011;51788;45.124;38.966;2023-09-07T10:26:34;9.00;;;2.50;;
65202;SDS011;51788;45.124;38.966;2023-09-07T10:29:00;2.10;;;2.00;;
65202;SDS011;51788;45.124;38.966;2023-09-07T10:31:29;3.33;;;1.85;;
65202;SDS011;51788;45.124;38.966;2023-09-07T10:33:55;8.30;;;1.80;;
65202;SDS011;51788;45.124;38.966;2023-09-07T10:36:25;4.22;;;2.30;;
65202;SDS011;51788;45.124;38.966;2023-09-07T10:38:54;2.63;;;2.42;;
65202;SDS011;51788;45.124;38.966;2023-09-07T10:41:21;5.63;;;2.28;;
65202;SDS011;51788;45.124;38.966;2023-09-07T10:43:49;2.35;;;2.15;;
65202;SDS011;51788;45.124;38.966;2023-09-07T10:46:19;4.03;;;1.92;;
65202;SDS011;51788;45.124;38.966;2023-09-07T10:48:50;1.90;;;1.80;;
65202;SDS011;51788;45.124;38.966;2023-09-07T10:51:17;2.78;;;2.30;;
65202;SDS011;51788;45.124;38.966;2023-09-07T10:53:44;6.45;;;2.35;;
65202;SDS011;51788;45.124;38.966;2023-09-07T10:56:10;2.05;;;1.73;;
65202;SDS011;51788;45.124;38.966;2023-09-07T10:58:37;8.07;;;2.13;;
65202;SDS011;51788;45.124;38.966;2023-09-07T11:01:10;2.13;;;2.03;;
65202;SDS011;51788;45.124;38.966;2023-09-07T11:03:37;4.63;;;2.22;;
65202;SDS011;51788;45.124;38.966;2023-09-07T11:06:10;2.13;;;2.03;;
65202;SDS011;51788;45.124;38.966;2023-09-07T11:08:47;1.90;;;1.80;;
65202;SDS011;51788;45.124;38.966;2023-09-07T11:11:13;6.80;;;2.70;;
65202;SDS011;51788;45.124;38.966;2023-09-07T11:13:40;6.40;;;2.25;;
65202;SDS011;51788;45.124;38.966;2023-09-07T11:16:08;9.48;;;2.45;;
65202;SDS011;51788;45.124;38.966;2023-09-07T11:18:35;3.85;;;2.08;;
65202;SDS011;51788;45.124;38.966;2023-09-07T11:21:01;5.03;;;2.63;;
65202;SDS011;51788;45.124;38.966;2023-09-07T11:23:33;3.38;;;2.50;;
65202;SDS011;51788;45.124;38.966;2023-09-07T11:26:05;5.25;;;2.70;;
65202;SDS011;51788;45.124;38.966;2023-09-07T11:28:31;8.18;;;2.63;;
65202;SDS011;51788;45.124;38.966;2023-09-07T11:30:58;6.68;;;3.10;;
65202;SDS011;51788;45.124;38.966;2023-09-07T11:33:24;6.68;;;2.50;;
65202;SDS011;51788;45.124;38.966;2023-09-07T11:35:53;4.47;;;3.38;;
65202;SDS011;51788;45.124;38.966;2023-09-07T11:38:23;4.00;;;2.83;;
65202;SDS011;51788;45.124;38.966;2023-09-07T11:40:53;3.85;;;2.65;;
65202;SDS011;51788;45.124;38.966;2023-09-07T11:43:19;6.82;;;2.80;;
65202;SDS011;51788;45.124;38.966;2023-09-07T11:45:45;3.70;;;2.95;;
65202;SDS011;51788;45.124;38.966;2023-09-07T11:48:12;5.47;;;3.20;;
65202;SDS011;51788;45.124;38.966;2023-09-07T11:50:38;5.13;;;2.40;;
65202;SDS011;51788;45.124;38.966;2023-09-07T11:53:05;5.75;;;2.70;;
65202;SDS011;51788;45.124;38.966;2023-09-07T11:55:34;4.63;;;2.92;;
65202;SDS011;51788;45.124;38.966;2023-09-07T11:58:01;9.02;;;3.63;;
65202;SDS011;51788;45.124;38.966;2023-09-07T12:00:28;11.75;;;2.90;;
65202;SDS011;51788;45.124;38.966;2023-09-07T12:02:56;6.70;;;2.70;;
65202;SDS011;51788;45.124;38.966;2023-09-07T12:05:23;3.13;;;2.92;;
65202;SDS011;51788;45.124;38.966;2023-09-07T12:07:49;6.07;;;2.90;;
65202;SDS011;51788;45.124;38.966;2023-09-07T12:10:15;6.40;;;3.47;;
65202;SDS011;51788;45.124;38.966;2023-09-07T12:12:42;5.22;;;2.30;;
65202;SDS011;51788;45.124;38.966;2023-09-07T12:15:09;7.72;;;3.40;;
65202;SDS011;51788;45.124;38.966;2023-09-07T12:17:38;7.88;;;3.85;;
65202;SDS011;51788;45.124;38.966;2023-09-07T12:20:05;13.32;;;4.20;;
65202;SDS011;51788;45.124;38.966;2023-09-07T12:22:36;7.07;;;3.50;;
65202;SDS011;51788;45.124;38.966;2023-09-07T12:25:05;23.70;;;4.32;;
65202;SDS011;51788;45.124;38.966;2023-09-07T12:27:33;10.40;;;3.50;;
65202;SDS011;51788;45.124;38.966;2023-09-07T12:30:00;23.75;;;4.30;;
65202;SDS011;51788;45.124;38.966;2023-09-07T12:32:27;11.57;;;3.70;;
65202;SDS011;51788;45.124;38.966;2023-09-07T12:34:53;8.40;;;3.15;;
65202;SDS011;51788;45.124;38.966;2023-09-07T12:37:20;6.47;;;3.88;;
65202;SDS011;51788;45.124;38.966;2023-09-07T12:39:52;14.52;;;3.50;;
65202;SDS011;51788;45.124;38.966;2023-09-07T12:42:18;16.45;;;4.78;;
65202;SDS011;51788;45.124;38.966;2023-09-07T12:44:44;16.10;;;4.35;;
65202;SDS011;51788;45.124;38.966;2023-09-07T12:47:10;8.75;;;3.92;;
65202;SDS011;51788;45.124;38.966;2023-09-07T12:49:36;4.53;;;3.20;;
65202;SDS011;51788;45.124;38.966;2023-09-07T12:52:02;7.25;;;3.50;;
65202;SDS011;51788;45.124;38.966;2023-09-07T12:54:34;11.57;;;3.25;;
65202;SDS011;51788;45.124;38.966;2023-09-07T12:57:02;9.85;;;3.55;;
65202;SDS011;51788;45.124;38.966;2023-09-07T12:59:29;11.95;;;3.70;;
65202;SDS011;51788;45.124;38.966;2023-09-07T13:01:55;13.15;;;3.28;;
65202;SDS011;51788;45.124;38.966;2023-09-07T13:04:21;3.50;;;3.22;;
65202;SDS011;51788;45.124;38.966;2023-09-07T13:06:47;3.58;;;3.28;;
65202;SDS011;51788;45.124;38.966;2023-09-07T13:09:13;5.85;;;3.95;;
65202;SDS011;51788;45.124;38.966;2023-09-07T13:11:39;9.20;;;3.40;;
65202;SDS011;51788;45.124;38.966;2023-09-07T13:14:06;4.30;;;3.78;;
65202;SDS011;51788;45.124;38.966;2023-09-07T13:16:33;4.43;;;3.15;;
65202;SDS011;51788;45.124;38.966;2023-09-07T13:18:59;5.50;;;3.67;;
65202;SDS011;51788;45.124;38.966;2023-09-07T13:21:26;8.95;;;3.72;;
65202;SDS011;51788;45.124;38.966;2023-09-07T13:23:52;5.30;;;3.00;;
65202;SDS011;51788;45.124;38.966;2023-09-07T13:26:18;4.50;;;3.63;;
65202;SDS011;51788;45.124;38.966;2023-09-07T13:28:44;6.97;;;4.35;;
65202;SDS011;51788;45.124;38.966;2023-09-07T13:31:10;4.82;;;3.72;;
65202;SDS011;51788;45.124;38.966;2023-09-07T13:33:36;5.45;;;3.53;;
65202;SDS011;51788;45.124;38.966;2023-09-07T13:36:02;5.88;;;3.40;;
65202;SDS011;51788;45.124;38.966;2023-09-07T13:38:30;8.50;;;2.92;;
65202;SDS011;51788;45.124;38.966;2023-09-07T13:40:56;21.42;;;3.75;;
65202;SDS011;51788;45.124;38.966;2023-09-07T13:43:22;5.35;;;3.40;;
65202;SDS011;51788;45.124;38.966;2023-09-07T13:45:47;13.88;;;3.75;;
65202;SDS011;51788;45.124;38.966;2023-09-07T13:48:14;11.27;;;4.10;;
65202;SDS011;51788;45.124;38.966;2023-09-07T13:50:40;3.92;;;2.53;;
65202;SDS011;51788;45.124;38.966;2023-09-07T13:53:06;5.40;;;3.50;;
65202;SDS011;51788;45.124;38.966;2023-09-07T13:55:32;3.38;;;3.15;;
65202;SDS011;51788;45.124;38.966;2023-09-07T13:57:59;8.35;;;3.42;;
65202;SDS011;51788;45.124;38.966;2023-09-07T14:00:25;7.82;;;3.88;;
65202;SDS011;51788;45.124;38.966;2023-09-07T14:02:51;8.20;;;3.88;;
65202;SDS011;51788;45.124;38.966;2023-09-07T14:05:18;3.83;;;3.15;;
65202;SDS011;51788;45.124;38.966;2023-09-07T14:07:44;22.13;;;4.28;;
65202;SDS011;51788;45.124;38.966;2023-09-07T14:10:10;11.98;;;4.43;;
65202;SDS011;51788;45.124;38.966;2023-09-07T14:12:36;9.93;;;3.60;;
65202;SDS011;51788;45.124;38.966;2023-09-07T14:15:02;9.30;;;3.42;;
65202;SDS011;51788;45.124;38.966;2023-09-07T14:17:28;26.05;;;4.32;;
65202;SDS011;51788;45.124;38.966;2023-09-07T14:19:54;9.68;;;3.90;;
65202;SDS011;51788;45.124;38.966;2023-09-07T14:22:20;12.55;;;3.60;;
65202;SDS011;51788;45.124;38.966;2023-09-07T14:24:47;5.57;;;2.95;;
65202;SDS011;51788;45.124;38.966;2023-09-07T14:27:13;8.10;;;3.78;;
65202;SDS011;51788;45.124;38.966;2023-09-07T14:29:39;8.02;;;3.20;;
65202;SDS011;51788;45.124;38.966;2023-09-07T14:32:05;5.68;;;3.78;;